createdAt,value
2023-01-26T00:01:13.773Z,1.70
2023-01-26T00:03:40.654Z,1.70
2023-01-26T00:06:09.545Z,1.60
2023-01-26T00:08:41.209Z,1.60
2023-01-26T00:11:10.082Z,1.60
2023-01-26T00:13:37.935Z,1.60
2023-01-26T00:16:05.142Z,1.60
2023-01-26T00:18:31.991Z,1.70
2023-01-26T00:21:03.500Z,1.70
2023-01-26T00:23:32.693Z,1.70
2023-01-26T00:26:00.110Z,1.70
2023-01-26T00:28:29.145Z,1.70
2023-01-26T00:31:06.265Z,1.70
2023-01-26T00:33:33.162Z,1.70
2023-01-26T00:36:00.127Z,1.60
2023-01-26T00:38:27.181Z,1.60
2023-01-26T00:40:54.128Z,1.60
2023-01-26T00:43:21.027Z,1.60
2023-01-26T00:45:47.737Z,1.60
2023-01-26T00:48:14.829Z,1.60
2023-01-26T00:50:41.647Z,1.70
2023-01-26T00:53:10.250Z,1.70
2023-01-26T00:55:37.697Z,1.70
2023-01-26T00:58:07.827Z,1.70
2023-01-26T01:00:37.032Z,1.70
2023-01-26T01:03:05.488Z,1.70
2023-01-26T01:05:33.463Z,1.70
2023-01-26T01:08:00.320Z,1.70
2023-01-26T01:10:27.449Z,1.80
2023-01-26T01:12:56.551Z,1.80
2023-01-26T01:15:23.928Z,1.90
2023-01-26T01:17:52.237Z,1.90
2023-01-26T01:20:19.193Z,1.90
2023-01-26T01:22:47.045Z,1.90
2023-01-26T01:25:14.474Z,1.90
2023-01-26T01:27:41.268Z,1.90
2023-01-26T01:30:08.754Z,1.90
2023-01-26T01:32:36.613Z,1.80
2023-01-26T01:35:03.600Z,1.80
2023-01-26T01:37:30.935Z,1.80
2023-01-26T01:39:57.779Z,1.80
2023-01-26T01:42:25.353Z,1.80
2023-01-26T01:45:26.024Z,1.80
2023-01-26T01:48:02.877Z,1.80
2023-01-26T01:50:39.422Z,1.80
2023-01-26T01:53:10.840Z,1.90
2023-01-26T01:55:38.016Z,1.80
2023-01-26T01:58:06.781Z,1.90
2023-01-26T02:00:33.757Z,1.90
2023-01-26T02:03:11.398Z,1.80
2023-01-26T02:06:03.809Z,1.80
2023-01-26T02:08:34.999Z,1.90
2023-01-26T02:11:07.464Z,1.90
2023-01-26T02:13:35.016Z,2.00
2023-01-26T02:16:04.126Z,2.00
2023-01-26T02:18:31.057Z,2.00
2023-01-26T02:21:09.145Z,2.10
2023-01-26T02:23:57.627Z,2.20
2023-01-26T02:26:29.919Z,2.20
2023-01-26T02:28:57.912Z,2.30
2023-01-26T02:31:26.796Z,2.30
2023-01-26T02:33:54.874Z,2.30
2023-01-26T02:36:24.514Z,2.30
2023-01-26T02:39:14.607Z,2.30
2023-01-26T02:42:00.773Z,2.30
2023-01-26T02:44:29.154Z,2.30
2023-01-26T02:46:56.295Z,2.30
2023-01-26T02:49:41.622Z,2.30
2023-01-26T02:52:08.799Z,2.30
2023-01-26T02:54:54.269Z,2.40
2023-01-26T02:57:21.185Z,2.40
2023-01-26T02:59:47.967Z,2.40
2023-01-26T03:02:14.899Z,2.30
2023-01-26T03:04:43.272Z,2.40
2023-01-26T03:07:10.615Z,2.30
2023-01-26T03:09:37.513Z,2.30
2023-01-26T03:12:04.720Z,2.30
2023-01-26T03:14:31.491Z,2.30
2023-01-26T03:16:58.222Z,2.30
2023-01-26T03:19:43.559Z,2.30
2023-01-26T03:22:29.960Z,2.30
2023-01-26T03:25:16.660Z,2.30
2023-01-26T03:27:47.009Z,2.40
2023-01-26T03:30:18.716Z,2.30
2023-01-26T03:32:47.291Z,2.40
2023-01-26T03:35:22.397Z,2.40
2023-01-26T03:37:54.452Z,2.40
2023-01-26T03:40:52.530Z,2.50
2023-01-26T03:43:39.223Z,2.50
2023-01-26T03:46:26.508Z,2.50
2023-01-26T03:49:12.569Z,2.60
2023-01-26T03:51:58.389Z,2.60
2023-01-26T03:54:43.870Z,2.50
2023-01-26T03:57:10.672Z,2.60
2023-01-26T03:59:38.316Z,2.60
2023-01-26T04:02:29.339Z,2.60
2023-01-26T04:05:16.712Z,2.60
2023-01-26T04:08:06.227Z,2.60
2023-01-26T04:10:33.582Z,2.70
2023-01-26T04:13:21.689Z,2.70
2023-01-26T04:16:11.994Z,2.70
2023-01-26T04:18:57.455Z,2.70
2023-01-26T04:21:28.542Z,2.70
2023-01-26T04:23:57.469Z,2.70
2023-01-26T04:26:26.508Z,2.60
2023-01-26T04:28:54.690Z,2.60
2023-01-26T04:31:21.647Z,2.60
2023-01-26T04:33:50.556Z,2.60
2023-01-26T04:36:17.479Z,2.60
2023-01-26T04:38:47.189Z,2.60
2023-01-26T04:41:17.840Z,2.70
2023-01-26T04:43:47.803Z,2.70
2023-01-26T04:46:15.836Z,2.70
2023-01-26T04:48:43.618Z,2.70
2023-01-26T04:51:14.278Z,2.70
2023-01-26T04:53:41.704Z,2.70
2023-01-26T04:56:14.872Z,2.70
2023-01-26T04:58:42.367Z,2.80
2023-01-26T05:01:09.326Z,2.70
2023-01-26T05:03:36.327Z,2.80
2023-01-26T05:06:03.288Z,2.80
2023-01-26T05:08:31.030Z,2.90
2023-01-26T05:10:57.808Z,2.80
2023-01-26T05:13:35.461Z,2.80
2023-01-26T05:16:13.803Z,2.80
2023-01-26T05:18:53.094Z,2.90
2023-01-26T05:21:44.351Z,2.80
2023-01-26T05:24:12.566Z,2.90
2023-01-26T05:27:21.361Z,2.90
2023-01-26T05:30:00.588Z,2.90
2023-01-26T05:32:30.561Z,2.90
2023-01-26T05:34:57.946Z,2.90
2023-01-26T05:37:26.495Z,2.80
2023-01-26T05:39:53.334Z,2.90
2023-01-26T05:42:21.001Z,2.90
2023-01-26T05:45:01.951Z,2.90
2023-01-26T05:47:29.251Z,2.90
2023-01-26T05:49:57.585Z,2.90
2023-01-26T05:52:28.291Z,3.10
2023-01-26T05:54:55.101Z,2.90
2023-01-26T05:57:23.139Z,2.90
2023-01-26T05:59:54.485Z,2.90
2023-01-26T06:02:22.149Z,2.90
2023-01-26T06:04:49.591Z,3.00
2023-01-26T06:07:16.384Z,2.90
2023-01-26T06:10:03.655Z,3.00
2023-01-26T06:13:02.519Z,3.00
2023-01-26T06:15:46.964Z,3.00
2023-01-26T06:18:14.687Z,3.10
2023-01-26T06:20:47.883Z,3.00
2023-01-26T06:23:14.721Z,3.00
2023-01-26T06:25:43.945Z,3.00
2023-01-26T06:28:10.671Z,3.10
2023-01-26T06:30:37.986Z,3.00
2023-01-26T06:33:09.130Z,3.10
2023-01-26T06:35:37.784Z,3.10
2023-01-26T06:38:09.579Z,3.00
2023-01-26T06:40:36.329Z,3.00
2023-01-26T06:43:03.816Z,3.00
2023-01-26T06:45:32.389Z,3.00
2023-01-26T06:48:00.047Z,3.00
2023-01-26T06:50:32.851Z,3.00
2023-01-26T06:53:02.601Z,3.00
2023-01-26T06:55:38.577Z,3.10
2023-01-26T06:58:23.825Z,3.10
2023-01-26T07:01:25.740Z,3.10
2023-01-26T07:03:54.567Z,3.10
2023-01-26T07:06:21.727Z,3.10
2023-01-26T07:08:48.584Z,3.20
2023-01-26T07:11:16.753Z,3.20
2023-01-26T07:13:43.508Z,3.20
2023-01-26T07:16:13.165Z,3.20
2023-01-26T07:18:40.068Z,3.20
2023-01-26T07:21:10.715Z,3.20
2023-01-26T07:23:37.603Z,3.20
2023-01-26T07:26:04.860Z,3.20
2023-01-26T07:28:31.641Z,3.20
2023-01-26T07:30:59.144Z,3.30
2023-01-26T07:33:26.157Z,3.30
2023-01-26T07:35:54.100Z,3.30
2023-01-26T07:38:21.440Z,3.30
2023-01-26T07:40:48.425Z,3.30
2023-01-26T07:43:15.540Z,3.30
2023-01-26T07:45:51.929Z,3.30
2023-01-26T07:48:20.360Z,3.30
2023-01-26T07:50:48.149Z,3.30
2023-01-26T07:53:15.323Z,3.40
2023-01-26T07:55:43.663Z,3.40
2023-01-26T07:58:10.952Z,3.40
2023-01-26T08:00:38.083Z,3.40
2023-01-26T08:03:07.255Z,3.40
2023-01-26T08:05:35.493Z,3.40
2023-01-26T08:08:02.441Z,3.50
2023-01-26T08:10:32.309Z,3.40
2023-01-26T08:13:00.664Z,3.50
2023-01-26T08:15:28.299Z,3.50
2023-01-26T08:17:55.496Z,3.40
2023-01-26T08:20:22.895Z,3.50
2023-01-26T08:22:50.769Z,3.50
2023-01-26T08:25:17.906Z,3.50
2023-01-26T08:27:44.726Z,3.50
2023-01-26T08:30:12.692Z,3.50
2023-01-26T08:32:39.749Z,3.60
2023-01-26T08:35:06.939Z,3.50
2023-01-26T08:37:34.068Z,3.60
2023-01-26T08:40:00.805Z,3.70
2023-01-26T08:42:27.992Z,3.60
2023-01-26T08:44:54.876Z,3.80
2023-01-26T08:47:21.687Z,3.70
2023-01-26T08:49:48.455Z,3.70
2023-01-26T08:52:15.328Z,3.80
2023-01-26T08:54:42.011Z,3.80
2023-01-26T08:57:08.713Z,3.80
2023-01-26T08:59:35.424Z,3.80
2023-01-26T09:02:02.286Z,3.90
2023-01-26T09:04:29.102Z,3.80
2023-01-26T09:06:56.016Z,3.90
2023-01-26T09:09:22.850Z,3.90
2023-01-26T09:11:49.619Z,3.90
2023-01-26T09:14:16.841Z,4.00
2023-01-26T09:16:43.678Z,4.10
2023-01-26T09:19:10.458Z,4.10
2023-01-26T09:21:37.279Z,4.10
2023-01-26T09:24:04.295Z,4.10
2023-01-26T09:26:31.576Z,4.20
2023-01-26T09:28:58.382Z,4.30
2023-01-26T09:31:25.293Z,4.40
2023-01-26T09:33:52.313Z,4.50
2023-01-26T09:36:19.302Z,4.60
2023-01-26T09:38:46.162Z,4.60
2023-01-26T09:41:41.122Z,4.70
2023-01-26T09:44:18.479Z,4.70
2023-01-26T09:47:00.175Z,4.80
2023-01-26T09:49:50.100Z,4.90
2023-01-26T09:52:50.998Z,5.00
2023-01-26T09:55:20.949Z,5.00
2023-01-26T09:57:50.863Z,5.10
2023-01-26T10:00:21.055Z,5.10
2023-01-26T10:02:55.350Z,5.20
2023-01-26T10:05:31.850Z,5.30
2023-01-26T10:08:13.641Z,5.30
2023-01-26T10:10:52.756Z,5.40
2023-01-26T10:13:21.958Z,5.50
2023-01-26T10:15:56.825Z,5.60
2023-01-26T10:18:37.093Z,5.70
2023-01-26T10:21:06.181Z,5.80
2023-01-26T10:23:34.550Z,5.90
2023-01-26T10:26:07.854Z,5.90
2023-01-26T10:28:35.999Z,6.00
2023-01-26T10:31:05.350Z,6.00
2023-01-26T10:33:35.674Z,6.10
2023-01-26T10:36:06.052Z,6.20
2023-01-26T10:38:32.788Z,6.20
2023-01-26T10:41:26.933Z,6.30
2023-01-26T10:44:02.468Z,6.30
2023-01-26T10:46:34.034Z,6.40
2023-01-26T10:49:22.984Z,6.50
2023-01-26T10:52:28.521Z,6.50
2023-01-26T10:55:21.038Z,6.60
2023-01-26T10:57:48.001Z,6.60
2023-01-26T11:00:34.031Z,6.70
2023-01-26T11:03:18.455Z,6.70
2023-01-26T11:05:48.044Z,6.70
2023-01-26T11:08:39.187Z,6.80
2023-01-26T11:11:11.715Z,6.80
2023-01-26T11:13:38.546Z,6.90
2023-01-26T11:16:24.957Z,6.90
2023-01-26T11:19:13.444Z,6.80
2023-01-26T11:22:05.538Z,6.90
2023-01-26T11:24:37.582Z,6.80
2023-01-26T11:27:13.881Z,6.80
2023-01-26T11:29:46.778Z,6.80
2023-01-26T11:32:29.319Z,6.80
2023-01-26T11:35:14.826Z,6.90
2023-01-26T11:37:53.817Z,7.10
2023-01-26T11:40:37.804Z,7.30
2023-01-26T11:43:23.447Z,7.40
2023-01-26T11:46:14.464Z,7.60
2023-01-26T11:48:59.911Z,7.60
2023-01-26T11:51:48.618Z,7.70
2023-01-26T11:54:29.652Z,7.70
2023-01-26T11:57:16.517Z,7.70
2023-01-26T11:59:47.562Z,7.80
2023-01-26T12:02:32.877Z,7.80
2023-01-26T12:05:10.626Z,7.80
2023-01-26T12:07:54.628Z,7.80
2023-01-26T12:10:25.028Z,7.90
2023-01-26T12:12:55.738Z,7.90
2023-01-26T12:15:27.489Z,8.00
2023-01-26T12:18:05.549Z,8.00
2023-01-26T12:20:32.213Z,7.80
2023-01-26T12:23:06.033Z,8.00
2023-01-26T12:25:34.849Z,8.00
2023-01-26T12:28:04.951Z,8.10
2023-01-26T12:30:35.422Z,8.20
2023-01-26T12:33:09.735Z,8.30
2023-01-26T12:35:36.615Z,8.30
2023-01-26T12:38:17.679Z,8.40
2023-01-26T12:40:45.117Z,8.50
2023-01-26T12:43:11.827Z,8.50
2023-01-26T12:45:40.524Z,8.60
2023-01-26T12:48:16.446Z,8.60
2023-01-26T12:50:45.782Z,8.70
2023-01-26T12:53:22.671Z,8.80
2023-01-26T12:55:54.586Z,8.80
2023-01-26T12:58:25.995Z,8.70
2023-01-26T13:00:52.680Z,8.70
2023-01-26T13:03:29.391Z,8.70
2023-01-26T13:06:03.225Z,8.80
2023-01-26T13:08:29.876Z,8.80
2023-01-26T13:10:59.680Z,8.90
2023-01-26T13:13:28.365Z,8.80
2023-01-26T13:16:13.935Z,8.80
2023-01-26T13:18:50.536Z,8.80
2023-01-26T13:21:42.502Z,8.80
2023-01-26T13:24:17.979Z,8.70
2023-01-26T13:26:48.582Z,8.60
2023-01-26T13:29:32.717Z,8.60
2023-01-26T13:32:01.978Z,8.50
2023-01-26T13:34:42.968Z,8.50
2023-01-26T13:37:22.636Z,8.50
2023-01-26T13:39:55.072Z,8.50
2023-01-26T13:42:31.498Z,8.50
2023-01-26T13:45:03.272Z,8.40
2023-01-26T13:47:34.206Z,8.30
2023-01-26T13:50:03.137Z,8.30
2023-01-26T13:52:29.978Z,8.40
2023-01-26T13:54:57.878Z,8.60
2023-01-26T13:57:25.972Z,8.60
2023-01-26T13:59:58.973Z,8.60
2023-01-26T14:02:40.486Z,8.50
2023-01-26T14:05:07.484Z,8.40
2023-01-26T14:07:42.551Z,8.30
2023-01-26T14:10:16.395Z,8.30
2023-01-26T14:12:44.213Z,8.20
2023-01-26T14:15:22.120Z,8.20
2023-01-26T14:17:50.668Z,8.30
2023-01-26T14:20:37.911Z,8.40
2023-01-26T14:23:10.025Z,8.50
2023-01-26T14:25:37.289Z,8.60
2023-01-26T14:28:04.014Z,8.60
2023-01-26T14:30:33.190Z,8.60
2023-01-26T14:33:04.701Z,8.60
2023-01-26T14:35:32.040Z,8.60
2023-01-26T14:38:11.189Z,8.60
2023-01-26T14:40:51.274Z,8.50
2023-01-26T14:43:18.334Z,8.50
2023-01-26T14:46:07.805Z,8.50
2023-01-26T14:48:54.906Z,8.50
2023-01-26T14:51:24.726Z,8.50
2023-01-26T14:53:52.785Z,8.50
2023-01-26T14:56:20.158Z,8.50
2023-01-26T14:58:50.339Z,8.40
2023-01-26T15:01:24.751Z,8.30
2023-01-26T15:03:56.949Z,8.30
2023-01-26T15:06:25.902Z,8.30
2023-01-26T15:08:56.968Z,8.30
2023-01-26T15:11:44.739Z,8.30
2023-01-26T15:14:30.138Z,8.30
2023-01-26T15:16:56.942Z,8.30
2023-01-26T15:19:24.715Z,8.30
2023-01-26T15:21:51.587Z,8.30
2023-01-26T15:24:19.141Z,8.20
2023-01-26T15:26:46.669Z,8.20
2023-01-26T15:29:23.189Z,8.20
2023-01-26T15:31:56.977Z,8.20
2023-01-26T15:34:37.266Z,8.20
2023-01-26T15:37:24.593Z,8.20
2023-01-26T15:39:51.287Z,8.20
2023-01-26T15:42:23.578Z,8.10
2023-01-26T15:44:50.542Z,8.10
2023-01-26T15:47:17.415Z,8.10
2023-01-26T15:49:46.202Z,8.10
2023-01-26T15:52:14.608Z,8.00
2023-01-26T15:54:41.494Z,8.00
2023-01-26T15:57:10.107Z,8.00
2023-01-26T15:59:38.321Z,8.00
2023-01-26T16:02:11.652Z,8.00
2023-01-26T16:04:38.326Z,7.90
2023-01-26T16:07:06.904Z,7.90
2023-01-26T16:09:33.601Z,8.00
2023-01-26T16:12:02.423Z,7.90
2023-01-26T16:14:29.068Z,7.90
2023-01-26T16:16:55.719Z,7.90
2023-01-26T16:19:34.777Z,7.90
2023-01-26T16:22:05.942Z,7.90
2023-01-26T16:24:34.629Z,7.90
2023-01-26T16:27:01.311Z,7.90
2023-01-26T16:29:28.019Z,7.90
2023-01-26T16:31:54.719Z,7.80
2023-01-26T16:34:21.843Z,7.80
2023-01-26T16:36:55.736Z,7.90
2023-01-26T16:39:22.465Z,7.70
2023-01-26T16:41:49.134Z,7.70
2023-01-26T16:44:17.454Z,7.60
2023-01-26T16:46:44.879Z,7.50
2023-01-26T16:49:13.319Z,7.50
2023-01-26T16:51:42.075Z,7.50
2023-01-26T16:54:10.389Z,7.50
2023-01-26T16:56:37.082Z,7.50
2023-01-26T16:59:05.889Z,7.50
2023-01-26T17:01:34.696Z,7.50
2023-01-26T17:04:02.275Z,7.50
2023-01-26T17:06:29.419Z,7.50
2023-01-26T17:08:56.142Z,7.50
2023-01-26T17:11:28.206Z,7.50
2023-01-26T17:14:02.944Z,7.50
2023-01-26T17:16:33.175Z,7.50
2023-01-26T17:18:59.992Z,7.50
2023-01-26T17:21:26.717Z,7.50
2023-01-26T17:23:54.444Z,7.50
2023-01-26T17:26:21.380Z,7.50
2023-01-26T17:28:54.027Z,7.50
2023-01-26T17:31:21.914Z,7.50
2023-01-26T17:33:49.523Z,7.50
2023-01-26T17:36:19.483Z,7.50
2023-01-26T17:38:46.964Z,7.50
2023-01-26T17:41:13.685Z,7.50
2023-01-26T17:43:40.457Z,7.50
2023-01-26T17:46:11.852Z,7.50
2023-01-26T17:48:38.638Z,7.50
2023-01-26T17:51:06.655Z,7.50
2023-01-26T17:53:35.750Z,7.50
2023-01-26T17:56:02.443Z,7.50
2023-01-26T17:58:29.034Z,7.50
2023-01-26T18:00:55.808Z,7.40
2023-01-26T18:03:26.150Z,7.40
2023-01-26T18:05:53.326Z,7.40
2023-01-26T18:08:20.384Z,7.40
2023-01-26T18:10:47.102Z,7.40
2023-01-26T18:13:16.514Z,7.40
2023-01-26T18:15:43.965Z,7.40
2023-01-26T18:18:10.669Z,7.40
2023-01-26T18:20:37.331Z,7.40
2023-01-26T18:23:04.481Z,7.40
2023-01-26T18:25:32.578Z,7.40
2023-01-26T18:27:59.306Z,7.30
2023-01-26T18:30:25.994Z,7.40
2023-01-26T18:32:52.584Z,7.30
2023-01-26T18:35:19.173Z,7.40
2023-01-26T18:37:45.848Z,7.40
2023-01-26T18:40:13.029Z,7.40
2023-01-26T18:42:40.062Z,7.30
2023-01-26T18:45:07.521Z,7.40
2023-01-26T18:47:34.249Z,7.40
2023-01-26T18:50:01.377Z,7.40
2023-01-26T18:52:30.711Z,7.40
2023-01-26T18:54:57.581Z,7.40
2023-01-26T18:57:24.278Z,7.50
2023-01-26T18:59:53.320Z,7.50
2023-01-26T19:02:20.017Z,7.50
2023-01-26T19:04:47.256Z,7.40
2023-01-26T19:07:15.250Z,7.50
2023-01-26T19:09:43.183Z,7.50
2023-01-26T19:12:09.905Z,7.40
2023-01-26T19:14:36.647Z,7.40
2023-01-26T19:17:03.291Z,7.40
2023-01-26T19:19:31.125Z,7.40
2023-01-26T19:21:58.110Z,7.40
2023-01-26T19:24:25.203Z,7.40
2023-01-26T19:26:51.928Z,7.50
2023-01-26T19:29:18.635Z,7.40
2023-01-26T19:31:45.253Z,7.40
2023-01-26T19:34:13.478Z,7.30
2023-01-26T19:36:40.798Z,7.30
2023-01-26T19:39:07.531Z,7.30
2023-01-26T19:41:34.238Z,7.30
2023-01-26T19:44:01.079Z,7.20
2023-01-26T19:46:29.832Z,7.30
2023-01-26T19:48:56.519Z,7.30
2023-01-26T19:51:26.795Z,7.20
2023-01-26T19:53:54.738Z,7.20
2023-01-26T19:56:28.944Z,7.20
2023-01-26T19:58:56.809Z,7.20
2023-01-26T20:01:24.177Z,7.20
2023-01-26T20:03:51.484Z,7.20
2023-01-26T20:06:20.753Z,7.20
2023-01-26T20:08:50.000Z,7.20
2023-01-26T20:11:20.083Z,7.20
2023-01-26T20:13:46.917Z,7.20
2023-01-26T20:16:13.762Z,7.20
2023-01-26T20:18:40.613Z,7.20
2023-01-26T20:21:07.499Z,7.20
2023-01-26T20:23:45.610Z,7.20
2023-01-26T20:26:18.947Z,7.20
2023-01-26T20:28:46.144Z,7.20
2023-01-26T20:31:15.647Z,7.20
2023-01-26T20:33:43.855Z,7.20
2023-01-26T20:36:13.757Z,7.20
2023-01-26T20:38:40.491Z,7.20
2023-01-26T20:41:12.545Z,7.10
2023-01-26T20:43:46.420Z,7.20
2023-01-26T20:46:20.088Z,7.20
2023-01-26T20:48:46.849Z,7.20
2023-01-26T20:51:17.930Z,7.10
2023-01-26T20:53:46.198Z,7.10
2023-01-26T20:56:14.082Z,7.20
2023-01-26T20:58:42.370Z,7.10
2023-01-26T21:01:10.356Z,7.20
2023-01-26T21:03:37.344Z,7.10
2023-01-26T21:06:04.874Z,7.10
2023-01-26T21:08:31.829Z,7.10
2023-01-26T21:10:58.545Z,7.20
2023-01-26T21:13:25.250Z,7.20
2023-01-26T21:15:52.606Z,7.10
2023-01-26T21:18:23.034Z,7.10
2023-01-26T21:21:03.539Z,7.10
2023-01-26T21:23:30.495Z,7.10
2023-01-26T21:26:01.004Z,7.10
2023-01-26T21:28:28.243Z,7.10
2023-01-26T21:30:58.863Z,7.10
2023-01-26T21:33:25.520Z,7.10
2023-01-26T21:35:55.957Z,7.10
2023-01-26T21:38:22.719Z,7.10
2023-01-26T21:40:49.466Z,7.00
2023-01-26T21:43:16.104Z,7.10
2023-01-26T21:45:55.749Z,7.10
2023-01-26T21:48:32.259Z,7.00
2023-01-26T21:51:17.929Z,7.00
2023-01-26T21:53:44.634Z,7.10
2023-01-26T21:56:17.288Z,7.10
2023-01-26T21:59:02.241Z,7.10
2023-01-26T22:01:30.039Z,7.10
2023-01-26T22:03:57.655Z,7.10
2023-01-26T22:06:27.325Z,7.10
2023-01-26T22:08:54.349Z,7.10
2023-01-26T22:11:23.858Z,7.10
2023-01-26T22:13:50.596Z,7.10
2023-01-26T22:16:17.428Z,7.10
2023-01-26T22:18:46.537Z,7.10
2023-01-26T22:21:15.611Z,7.10
2023-01-26T22:23:42.572Z,7.10
2023-01-26T22:26:13.373Z,7.10
2023-01-26T22:28:40.664Z,7.10
2023-01-26T22:31:07.526Z,7.10
2023-01-26T22:33:35.192Z,7.10
2023-01-26T22:36:07.440Z,7.00
2023-01-26T22:38:34.736Z,7.10
2023-01-26T22:41:06.357Z,7.00
2023-01-26T22:43:33.706Z,7.00
2023-01-26T22:46:04.497Z,7.00
2023-01-26T22:48:31.805Z,7.00
2023-01-26T22:51:05.417Z,7.00
2023-01-26T22:53:32.681Z,7.00
2023-01-26T22:55:59.572Z,7.00
2023-01-26T22:58:28.540Z,7.00
2023-01-26T23:01:06.028Z,7.00
2023-01-26T23:03:35.843Z,7.00
2023-01-26T23:06:02.995Z,7.00
2023-01-26T23:08:30.000Z,7.00
2023-01-26T23:11:07.118Z,7.00
2023-01-26T23:13:34.156Z,6.90
2023-01-26T23:16:01.110Z,6.90
2023-01-26T23:18:28.318Z,6.90
2023-01-26T23:20:59.388Z,6.90
2023-01-26T23:23:26.685Z,6.90
2023-01-26T23:25:54.241Z,6.90
2023-01-26T23:28:25.076Z,6.90
2023-01-26T23:30:52.615Z,6.90
2023-01-26T23:33:20.056Z,6.90
2023-01-26T23:35:48.551Z,6.90
2023-01-26T23:38:15.569Z,6.90
2023-01-26T23:40:43.675Z,6.90
2023-01-26T23:43:17.125Z,6.90
2023-01-26T23:45:45.988Z,6.90
2023-01-26T23:48:13.060Z,6.90
2023-01-26T23:50:39.724Z,6.90
2023-01-26T23:53:06.579Z,6.90
2023-01-26T23:55:33.239Z,6.90
2023-01-26T23:57:59.876Z,6.90
